Aérodrome :
LOGIN :

S'inscrire | Disclaimer

   EN    FR    IT 

 










Légende :    VFR   VFR Marginal   IFR   IFR Intensif   IFR Très Intensif
Visi : 
Plafond : 
>= 8 km
>= 3000ft
5 à 8 km
1000 à 3000 ft
1500m à 5 km
500 à 1000 ft
800 à 1500m
200 à 500 ft
< 800m
< 200 ft
Symboles :   Orages  Brouillard  Fortes neiges  Fortes précipitations  Vent > 20 kt
SIGMETs :   Divers  Orages  Givrage  Turbulence  Onde Orograph.  Cendres Volcan.







- Altitude de l'aérodrome : -11 ft
- Code IATA : AMS


EHAM - Amsterdam Schiphol

DERNIER METAR :
  • 210725Z 09011KT 060V120 9000 FEW028 03/00 Q1014 NOSIG

METARs EXPIRÉS :
  • 210655Z 10010KT 9000 FEW028 SCT033 03/00 Q1014 NOSIG
  • 210625Z 10011KT 9000 FEW025 BKN033 BKN049 03/00 Q1014 NOSIG
  • 210555Z 10010KT 060V130 9000 FEW025 BKN033 BKN049 03/00 Q1013 NOSIG
  • 210525Z 11009KT 080V140 9000 -RA SCT024 OVC032 03/00 Q1013 NOSIG
  • 210455Z 11011KT 080V140 9999 FEW025 OVC033 03/00 Q1013 NOSIG

TAF TAF EHAM
Valide du 21 à 06h jusqu'au 22 à 12h UTC


210509Z 2106/2212 10009KT 9999 BKN025
PROB40
TEMPO 2202/2210 5000 BR BKN006
Pas de NOTAMs connus pour ce terrain.



MET'MAP, la Météo Aéronautique d'un coup d'oeil ! - Copyright ORBIFLY Décembre 2007 - Disclaimer

ORBIFLY MET'MAP TEAM :

Programmation & Développement : Alexandra Zaïnal
Conception & Développement : Baudouin d'Aumeries
Co-Programmation & Développement : Marc-Olivier Méhu
Soutien technique & logistique : Manuel Goepfert

Contact : metmap@orbifly.com




SOURCES & CREDITS :

   NOAA